sensor_id;sensor_type;location;lat;lon;timestamp;P1;durP1;ratioP1;P2;durP2;ratioP2
2966;SDS011;1493;51.496;7.210;2023-12-20T00:00:37;26.20;;;18.07;;
2966;SDS011;1493;51.496;7.210;2023-12-20T00:03:04;22.23;;;14.27;;
2966;SDS011;1493;51.496;7.210;2023-12-20T00:05:31;22.87;;;15.27;;
2966;SDS011;1493;51.496;7.210;2023-12-20T00:07:59;19.70;;;13.30;;
2966;SDS011;1493;51.496;7.210;2023-12-20T00:10:26;19.37;;;12.03;;
2966;SDS011;1493;51.496;7.210;2023-12-20T00:12:53;17.13;;;12.37;;
2966;SDS011;1493;51.496;7.210;2023-12-20T00:15:20;21.70;;;13.73;;
2966;SDS011;1493;51.496;7.210;2023-12-20T00:17:47;21.37;;;13.60;;
2966;SDS011;1493;51.496;7.210;2023-12-20T00:20:19;18.90;;;12.50;;
2966;SDS011;1493;51.496;7.210;2023-12-20T00:22:51;23.77;;;14.43;;
2966;SDS011;1493;51.496;7.210;2023-12-20T00:25:19;22.20;;;14.10;;
2966;SDS011;1493;51.496;7.210;2023-12-20T00:27:48;21.47;;;14.00;;
2966;SDS011;1493;51.496;7.210;2023-12-20T00:30:15;22.43;;;13.40;;
2966;SDS011;1493;51.496;7.210;2023-12-20T00:32:41;21.20;;;14.10;;
2966;SDS011;1493;51.496;7.210;2023-12-20T00:35:11;22.10;;;12.90;;
2966;SDS011;1493;51.496;7.210;2023-12-20T00:37:38;15.73;;;11.13;;
2966;SDS011;1493;51.496;7.210;2023-12-20T00:40:05;21.77;;;13.23;;
2966;SDS011;1493;51.496;7.210;2023-12-20T00:42:34;24.70;;;11.77;;
2966;SDS011;1493;51.496;7.210;2023-12-20T00:45:02;26.07;;;12.60;;
2966;SDS011;1493;51.496;7.210;2023-12-20T00:47:29;15.70;;;10.17;;
2966;SDS011;1493;51.496;7.210;2023-12-20T00:49:56;18.00;;;9.10;;
2966;SDS011;1493;51.496;7.210;2023-12-20T00:52:23;19.43;;;9.50;;
2966;SDS011;1493;51.496;7.210;2023-12-20T00:54:50;20.70;;;12.00;;
2966;SDS011;1493;51.496;7.210;2023-12-20T00:57:18;17.30;;;9.10;;
2966;SDS011;1493;51.496;7.210;2023-12-20T00:59:46;16.87;;;9.40;;
2966;SDS011;1493;51.496;7.210;2023-12-20T01:02:13;14.10;;;8.57;;
2966;SDS011;1493;51.496;7.210;2023-12-20T01:04:40;12.40;;;7.80;;
2966;SDS011;1493;51.496;7.210;2023-12-20T01:07:07;12.83;;;7.67;;
2966;SDS011;1493;51.496;7.210;2023-12-20T01:09:34;16.70;;;9.80;;
2966;SDS011;1493;51.496;7.210;2023-12-20T01:12:01;15.83;;;8.40;;
2966;SDS011;1493;51.496;7.210;2023-12-20T01:14:28;17.40;;;7.90;;
2966;SDS011;1493;51.496;7.210;2023-12-20T01:16:56;11.10;;;7.90;;
2966;SDS011;1493;51.496;7.210;2023-12-20T01:19:24;13.77;;;8.87;;
2966;SDS011;1493;51.496;7.210;2023-12-20T01:21:52;16.73;;;8.03;;
2966;SDS011;1493;51.496;7.210;2023-12-20T01:24:18;14.30;;;8.70;;
2966;SDS011;1493;51.496;7.210;2023-12-20T01:26:45;17.23;;;8.80;;
2966;SDS011;1493;51.496;7.210;2023-12-20T01:29:12;17.50;;;9.03;;
2966;SDS011;1493;51.496;7.210;2023-12-20T01:31:39;18.63;;;8.07;;
2966;SDS011;1493;51.496;7.210;2023-12-20T01:34:08;17.90;;;8.47;;
2966;SDS011;1493;51.496;7.210;2023-12-20T01:36:34;23.23;;;8.87;;
2966;SDS011;1493;51.496;7.210;2023-12-20T01:39:01;15.10;;;7.70;;
2966;SDS011;1493;51.496;7.210;2023-12-20T01:41:29;15.83;;;7.10;;
2966;SDS011;1493;51.496;7.210;2023-12-20T01:43:56;18.70;;;7.23;;
2966;SDS011;1493;51.496;7.210;2023-12-20T01:46:23;14.50;;;7.70;;
2966;SDS011;1493;51.496;7.210;2023-12-20T01:48:50;15.97;;;7.67;;
2966;SDS011;1493;51.496;7.210;2023-12-20T01:51:19;18.17;;;8.10;;
2966;SDS011;1493;51.496;7.210;2023-12-20T01:53:47;13.07;;;7.27;;
2966;SDS011;1493;51.496;7.210;2023-12-20T01:56:15;12.77;;;7.33;;
2966;SDS011;1493;51.496;7.210;2023-12-20T01:58:43;13.50;;;9.37;;
2966;SDS011;1493;51.496;7.210;2023-12-20T02:01:14;11.50;;;7.90;;
2966;SDS011;1493;51.496;7.210;2023-12-20T02:03:44;10.63;;;6.30;;
2966;SDS011;1493;51.496;7.210;2023-12-20T02:06:14;10.53;;;5.60;;
2966;SDS011;1493;51.496;7.210;2023-12-20T02:15:31;19.10;;;6.30;;
2966;SDS011;1493;51.496;7.210;2023-12-20T02:36:06;10.40;;;6.20;;
2966;SDS011;1493;51.496;7.210;2023-12-20T02:38:33;18.47;;;6.83;;
2966;SDS011;1493;51.496;7.210;2023-12-20T02:41:00;14.40;;;7.57;;
2966;SDS011;1493;51.496;7.210;2023-12-20T02:43:28;16.17;;;6.80;;
2966;SDS011;1493;51.496;7.210;2023-12-20T02:45:55;20.40;;;7.63;;
2966;SDS011;1493;51.496;7.210;2023-12-20T02:48:22;12.03;;;6.03;;
2966;SDS011;1493;51.496;7.210;2023-12-20T02:50:49;12.30;;;6.80;;
2966;SDS011;1493;51.496;7.210;2023-12-20T02:53:15;14.90;;;7.30;;
2966;SDS011;1493;51.496;7.210;2023-12-20T02:55:42;11.10;;;6.30;;
2966;SDS011;1493;51.496;7.210;2023-12-20T02:58:12;8.17;;;5.50;;
2966;SDS011;1493;51.496;7.210;2023-12-20T03:00:43;18.33;;;7.20;;
2966;SDS011;1493;51.496;7.210;2023-12-20T03:03:50;16.00;;;7.97;;
2966;SDS011;1493;51.496;7.210;2023-12-20T03:06:19;12.67;;;6.40;;
2966;SDS011;1493;51.496;7.210;2023-12-20T03:08:46;17.80;;;6.87;;
2966;SDS011;1493;51.496;7.210;2023-12-20T03:11:13;14.80;;;7.33;;
2966;SDS011;1493;51.496;7.210;2023-12-20T03:13:40;16.93;;;7.90;;
2966;SDS011;1493;51.496;7.210;2023-12-20T03:16:09;16.53;;;7.37;;
2966;SDS011;1493;51.496;7.210;2023-12-20T03:18:36;13.37;;;8.60;;
2966;SDS011;1493;51.496;7.210;2023-12-20T03:23:10;13.97;;;6.23;;
2966;SDS011;1493;51.496;7.210;2023-12-20T03:24:28;19.57;;;8.80;;
2966;SDS011;1493;51.496;7.210;2023-12-20T03:26:55;14.77;;;7.43;;
2966;SDS011;1493;51.496;7.210;2023-12-20T03:29:22;16.00;;;8.63;;
2966;SDS011;1493;51.496;7.210;2023-12-20T03:31:54;20.13;;;8.20;;
2966;SDS011;1493;51.496;7.210;2023-12-20T03:34:31;15.53;;;7.30;;
2966;SDS011;1493;51.496;7.210;2023-12-20T03:36:58;12.93;;;7.47;;
2966;SDS011;1493;51.496;7.210;2023-12-20T03:39:42;12.73;;;7.33;;
2966;SDS011;1493;51.496;7.210;2023-12-20T03:45:56;11.33;;;6.37;;
2966;SDS011;1493;51.496;7.210;2023-12-20T03:48:25;17.40;;;6.23;;
2966;SDS011;1493;51.496;7.210;2023-12-20T03:50:53;21.97;;;7.33;;
2966;SDS011;1493;51.496;7.210;2023-12-20T03:53:20;14.80;;;5.87;;
2966;SDS011;1493;51.496;7.210;2023-12-20T03:55:47;12.40;;;5.90;;
2966;SDS011;1493;51.496;7.210;2023-12-20T03:58:14;12.43;;;5.47;;
2966;SDS011;1493;51.496;7.210;2023-12-20T04:00:41;16.33;;;6.03;;
2966;SDS011;1493;51.496;7.210;2023-12-20T04:03:10;17.10;;;5.60;;
2966;SDS011;1493;51.496;7.210;2023-12-20T04:05:39;13.93;;;4.40;;
2966;SDS011;1493;51.496;7.210;2023-12-20T04:08:06;11.97;;;5.60;;
2966;SDS011;1493;51.496;7.210;2023-12-20T04:10:33;11.43;;;5.17;;
2966;SDS011;1493;51.496;7.210;2023-12-20T04:13:02;13.73;;;4.60;;
2966;SDS011;1493;51.496;7.210;2023-12-20T04:15:29;22.33;;;7.53;;
2966;SDS011;1493;51.496;7.210;2023-12-20T04:17:56;13.10;;;4.33;;
2966;SDS011;1493;51.496;7.210;2023-12-20T04:20:23;10.30;;;4.80;;
2966;SDS011;1493;51.496;7.210;2023-12-20T04:22:51;8.77;;;4.17;;
2966;SDS011;1493;51.496;7.210;2023-12-20T04:25:18;13.30;;;4.97;;
2966;SDS011;1493;51.496;7.210;2023-12-20T04:27:45;7.80;;;3.90;;
2966;SDS011;1493;51.496;7.210;2023-12-20T04:30:12;13.23;;;4.73;;
2966;SDS011;1493;51.496;7.210;2023-12-20T04:32:39;14.07;;;4.90;;
2966;SDS011;1493;51.496;7.210;2023-12-20T04:35:06;13.30;;;4.67;;
2966;SDS011;1493;51.496;7.210;2023-12-20T04:37:33;11.33;;;4.87;;
2966;SDS011;1493;51.496;7.210;2023-12-20T04:40:01;17.80;;;5.33;;
2966;SDS011;1493;51.496;7.210;2023-12-20T04:42:30;12.77;;;4.63;;
2966;SDS011;1493;51.496;7.210;2023-12-20T04:44:57;10.13;;;4.93;;
2966;SDS011;1493;51.496;7.210;2023-12-20T04:47:24;14.53;;;5.23;;
2966;SDS011;1493;51.496;7.210;2023-12-20T04:49:50;13.40;;;6.20;;
2966;SDS011;1493;51.496;7.210;2023-12-20T04:52:17;9.97;;;5.07;;
2966;SDS011;1493;51.496;7.210;2023-12-20T04:54:44;13.60;;;5.17;;
2966;SDS011;1493;51.496;7.210;2023-12-20T04:57:12;15.70;;;6.40;;
2966;SDS011;1493;51.496;7.210;2023-12-20T04:59:39;15.13;;;5.73;;
2966;SDS011;1493;51.496;7.210;2023-12-20T05:02:06;10.70;;;5.37;;
2966;SDS011;1493;51.496;7.210;2023-12-20T05:04:33;16.17;;;6.37;;
2966;SDS011;1493;51.496;7.210;2023-12-20T05:07:00;18.23;;;8.50;;
2966;SDS011;1493;51.496;7.210;2023-12-20T05:09:27;11.13;;;6.27;;
2966;SDS011;1493;51.496;7.210;2023-12-20T05:11:54;18.60;;;7.30;;
2966;SDS011;1493;51.496;7.210;2023-12-20T05:14:22;16.17;;;6.97;;
2966;SDS011;1493;51.496;7.210;2023-12-20T05:16:49;15.27;;;8.20;;
2966;SDS011;1493;51.496;7.210;2023-12-20T05:19:16;16.57;;;6.77;;
2966;SDS011;1493;51.496;7.210;2023-12-20T05:21:43;13.90;;;6.70;;
2966;SDS011;1493;51.496;7.210;2023-12-20T05:24:10;9.03;;;5.87;;
2966;SDS011;1493;51.496;7.210;2023-12-20T05:26:37;12.73;;;5.13;;
2966;SDS011;1493;51.496;7.210;2023-12-20T05:29:09;12.57;;;6.07;;
2966;SDS011;1493;51.496;7.210;2023-12-20T05:31:45;20.70;;;7.10;;
2966;SDS011;1493;51.496;7.210;2023-12-20T05:34:19;11.00;;;5.43;;
2966;SDS011;1493;51.496;7.210;2023-12-20T05:36:47;10.03;;;5.43;;
2966;SDS011;1493;51.496;7.210;2023-12-20T05:39:20;17.70;;;6.40;;
2966;SDS011;1493;51.496;7.210;2023-12-20T05:42:10;14.43;;;4.77;;
2966;SDS011;1493;51.496;7.210;2023-12-20T05:45:10;12.40;;;7.83;;
2966;SDS011;1493;51.496;7.210;2023-12-20T05:47:56;19.20;;;5.90;;
2966;SDS011;1493;51.496;7.210;2023-12-20T05:50:23;11.97;;;6.07;;
2966;SDS011;1493;51.496;7.210;2023-12-20T05:52:50;15.60;;;6.90;;
2966;SDS011;1493;51.496;7.210;2023-12-20T05:55:20;15.83;;;6.17;;
2966;SDS011;1493;51.496;7.210;2023-12-20T05:57:47;16.90;;;6.03;;
2966;SDS011;1493;51.496;7.210;2023-12-20T06:00:14;15.50;;;5.80;;
2966;SDS011;1493;51.496;7.210;2023-12-20T06:02:41;12.13;;;5.23;;
2966;SDS011;1493;51.496;7.210;2023-12-20T06:05:10;14.00;;;5.13;;
2966;SDS011;1493;51.496;7.210;2023-12-20T06:07:37;10.87;;;5.47;;
2966;SDS011;1493;51.496;7.210;2023-12-20T06:10:04;13.30;;;5.13;;
2966;SDS011;1493;51.496;7.210;2023-12-20T06:12:32;13.33;;;5.30;;
2966;SDS011;1493;51.496;7.210;2023-12-20T06:15:01;12.97;;;6.27;;
2966;SDS011;1493;51.496;7.210;2023-12-20T06:17:28;19.70;;;6.50;;
2966;SDS011;1493;51.496;7.210;2023-12-20T06:19:56;16.40;;;6.53;;
2966;SDS011;1493;51.496;7.210;2023-12-20T06:22:24;12.90;;;6.50;;
2966;SDS011;1493;51.496;7.210;2023-12-20T06:24:51;14.43;;;6.43;;
2966;SDS011;1493;51.496;7.210;2023-12-20T06:27:18;20.27;;;7.30;;
2966;SDS011;1493;51.496;7.210;2023-12-20T06:29:45;14.50;;;6.53;;
2966;SDS011;1493;51.496;7.210;2023-12-20T06:32:12;16.03;;;5.83;;
2966;SDS011;1493;51.496;7.210;2023-12-20T06:34:39;20.23;;;7.57;;
2966;SDS011;1493;51.496;7.210;2023-12-20T06:37:05;16.90;;;6.67;;
2966;SDS011;1493;51.496;7.210;2023-12-20T06:39:34;13.90;;;6.90;;
2966;SDS011;1493;51.496;7.210;2023-12-20T06:42:01;15.43;;;7.07;;
2966;SDS011;1493;51.496;7.210;2023-12-20T06:44:27;13.83;;;6.23;;
2966;SDS011;1493;51.496;7.210;2023-12-20T06:46:54;18.80;;;6.80;;
2966;SDS011;1493;51.496;7.210;2023-12-20T06:49:21;17.07;;;6.80;;
2966;SDS011;1493;51.496;7.210;2023-12-20T06:51:48;14.40;;;5.70;;
2966;SDS011;1493;51.496;7.210;2023-12-20T06:54:18;13.13;;;6.53;;
2966;SDS011;1493;51.496;7.210;2023-12-20T06:56:46;12.80;;;7.40;;
2966;SDS011;1493;51.496;7.210;2023-12-20T06:59:13;10.57;;;7.03;;
2966;SDS011;1493;51.496;7.210;2023-12-20T07:01:40;18.30;;;6.90;;
2966;SDS011;1493;51.496;7.210;2023-12-20T07:04:07;23.73;;;7.67;;
2966;SDS011;1493;51.496;7.210;2023-12-20T07:06:34;14.20;;;6.60;;
2966;SDS011;1493;51.496;7.210;2023-12-20T07:09:01;15.93;;;7.60;;
2966;SDS011;1493;51.496;7.210;2023-12-20T07:11:28;13.93;;;6.93;;
2966;SDS011;1493;51.496;7.210;2023-12-20T07:13:56;14.57;;;6.33;;
2966;SDS011;1493;51.496;7.210;2023-12-20T07:16:23;20.53;;;7.27;;
2966;SDS011;1493;51.496;7.210;2023-12-20T07:18:50;15.40;;;6.83;;
2966;SDS011;1493;51.496;7.210;2023-12-20T07:21:17;16.40;;;6.60;;
2966;SDS011;1493;51.496;7.210;2023-12-20T07:23:44;14.60;;;7.00;;
2966;SDS011;1493;51.496;7.210;2023-12-20T07:26:12;20.17;;;6.67;;
2966;SDS011;1493;51.496;7.210;2023-12-20T07:28:39;13.30;;;6.27;;
2966;SDS011;1493;51.496;7.210;2023-12-20T07:31:08;10.03;;;5.90;;
2966;SDS011;1493;51.496;7.210;2023-12-20T07:33:34;14.40;;;5.77;;
2966;SDS011;1493;51.496;7.210;2023-12-20T07:36:01;14.17;;;7.37;;
2966;SDS011;1493;51.496;7.210;2023-12-20T07:38:28;15.57;;;6.50;;
2966;SDS011;1493;51.496;7.210;2023-12-20T07:40:55;16.77;;;5.73;;
2966;SDS011;1493;51.496;7.210;2023-12-20T07:43:22;11.20;;;5.77;;
2966;SDS011;1493;51.496;7.210;2023-12-20T07:45:49;18.27;;;8.80;;
2966;SDS011;1493;51.496;7.210;2023-12-20T07:48:17;12.03;;;6.00;;
2966;SDS011;1493;51.496;7.210;2023-12-20T07:50:44;16.00;;;6.00;;
2966;SDS011;1493;51.496;7.210;2023-12-20T07:53:10;15.47;;;6.30;;
2966;SDS011;1493;51.496;7.210;2023-12-20T07:55:37;15.47;;;6.20;;
2966;SDS011;1493;51.496;7.210;2023-12-20T07:58:05;10.40;;;5.57;;
2966;SDS011;1493;51.496;7.210;2023-12-20T08:00:32;16.23;;;5.50;;
2966;SDS011;1493;51.496;7.210;2023-12-20T08:02:59;13.67;;;6.10;;
2966;SDS011;1493;51.496;7.210;2023-12-20T08:05:29;15.77;;;5.40;;
2966;SDS011;1493;51.496;7.210;2023-12-20T08:07:56;15.03;;;5.70;;
2966;SDS011;1493;51.496;7.210;2023-12-20T08:10:23;13.10;;;4.53;;
2966;SDS011;1493;51.496;7.210;2023-12-20T08:12:50;21.67;;;5.80;;
2966;SDS011;1493;51.496;7.210;2023-12-20T08:15:17;10.33;;;5.50;;
2966;SDS011;1493;51.496;7.210;2023-12-20T08:17:44;11.80;;;5.20;;
2966;SDS011;1493;51.496;7.210;2023-12-20T08:20:11;11.33;;;4.63;;
2966;SDS011;1493;51.496;7.210;2023-12-20T08:22:39;19.43;;;6.27;;
2966;SDS011;1493;51.496;7.210;2023-12-20T08:25:06;23.20;;;5.17;;
2966;SDS011;1493;51.496;7.210;2023-12-20T08:27:33;13.90;;;4.67;;
2966;SDS011;1493;51.496;7.210;2023-12-20T08:30:02;17.33;;;5.60;;
2966;SDS011;1493;51.496;7.210;2023-12-20T08:32:29;19.03;;;4.70;;
2966;SDS011;1493;51.496;7.210;2023-12-20T08:34:57;14.93;;;5.27;;
2966;SDS011;1493;51.496;7.210;2023-12-20T08:37:24;14.20;;;5.10;;
2966;SDS011;1493;51.496;7.210;2023-12-20T08:39:57;15.93;;;5.00;;
2966;SDS011;1493;51.496;7.210;2023-12-20T08:42:24;14.43;;;5.80;;
2966;SDS011;1493;51.496;7.210;2023-12-20T08:44:56;21.20;;;4.70;;
2966;SDS011;1493;51.496;7.210;2023-12-20T08:47:23;18.43;;;5.47;;
2966;SDS011;1493;51.496;7.210;2023-12-20T08:49:50;11.43;;;5.20;;
2966;SDS011;1493;51.496;7.210;2023-12-20T08:52:21;17.70;;;5.80;;
2966;SDS011;1493;51.496;7.210;2023-12-20T08:54:48;11.17;;;5.00;;
2966;SDS011;1493;51.496;7.210;2023-12-20T08:57:18;13.07;;;4.60;;
2966;SDS011;1493;51.496;7.210;2023-12-20T08:59:45;14.23;;;5.07;;
2966;SDS011;1493;51.496;7.210;2023-12-20T09:02:13;12.77;;;5.53;;
2966;SDS011;1493;51.496;7.210;2023-12-20T09:04:40;10.10;;;5.10;;
2966;SDS011;1493;51.496;7.210;2023-12-20T09:07:07;9.80;;;4.90;;
2966;SDS011;1493;51.496;7.210;2023-12-20T09:09:47;14.63;;;5.27;;
2966;SDS011;1493;51.496;7.210;2023-12-20T09:12:14;11.80;;;4.60;;
2966;SDS011;1493;51.496;7.210;2023-12-20T09:14:42;13.07;;;5.47;;
2966;SDS011;1493;51.496;7.210;2023-12-20T09:17:09;12.70;;;4.60;;
2966;SDS011;1493;51.496;7.210;2023-12-20T09:19:37;13.10;;;3.83;;
2966;SDS011;1493;51.496;7.210;2023-12-20T09:22:04;10.07;;;4.80;;
2966;SDS011;1493;51.496;7.210;2023-12-20T09:24:31;13.97;;;3.87;;
2966;SDS011;1493;51.496;7.210;2023-12-20T09:26:58;9.07;;;3.10;;
2966;SDS011;1493;51.496;7.210;2023-12-20T09:29:24;10.93;;;3.90;;
2966;SDS011;1493;51.496;7.210;2023-12-20T09:31:53;11.63;;;4.63;;
2966;SDS011;1493;51.496;7.210;2023-12-20T09:34:19;15.80;;;4.10;;
2966;SDS011;1493;51.496;7.210;2023-12-20T09:36:47;10.80;;;4.10;;
2966;SDS011;1493;51.496;7.210;2023-12-20T09:39:14;11.13;;;3.73;;
2966;SDS011;1493;51.496;7.210;2023-12-20T09:41:44;14.47;;;3.93;;
2966;SDS011;1493;51.496;7.210;2023-12-20T09:44:21;7.47;;;3.70;;
2966;SDS011;1493;51.496;7.210;2023-12-20T09:46:49;16.03;;;3.93;;
2966;SDS011;1493;51.496;7.210;2023-12-20T09:49:18;7.00;;;3.53;;
2966;SDS011;1493;51.496;7.210;2023-12-20T09:51:45;16.20;;;4.80;;
2966;SDS011;1493;51.496;7.210;2023-12-20T09:54:13;15.30;;;4.23;;
2966;SDS011;1493;51.496;7.210;2023-12-20T09:56:41;12.90;;;4.00;;
2966;SDS011;1493;51.496;7.210;2023-12-20T09:59:08;14.23;;;3.70;;
2966;SDS011;1493;51.496;7.210;2023-12-20T10:01:35;21.33;;;7.30;;
2966;SDS011;1493;51.496;7.210;2023-12-20T10:04:05;7.13;;;3.70;;
2966;SDS011;1493;51.496;7.210;2023-12-20T10:06:35;11.90;;;3.40;;
2966;SDS011;1493;51.496;7.210;2023-12-20T10:09:02;15.03;;;4.60;;
2966;SDS011;1493;51.496;7.210;2023-12-20T10:11:30;8.63;;;3.10;;
2966;SDS011;1493;51.496;7.210;2023-12-20T10:13:58;13.13;;;4.00;;
2966;SDS011;1493;51.496;7.210;2023-12-20T10:16:26;16.27;;;3.97;;
2966;SDS011;1493;51.496;7.210;2023-12-20T10:18:53;15.57;;;4.27;;
2966;SDS011;1493;51.496;7.210;2023-12-20T10:21:20;12.50;;;3.60;;
2966;SDS011;1493;51.496;7.210;2023-12-20T10:23:49;8.33;;;3.17;;
2966;SDS011;1493;51.496;7.210;2023-12-20T10:26:19;14.53;;;4.10;;
2966;SDS011;1493;51.496;7.210;2023-12-20T10:28:46;13.70;;;4.17;;
2966;SDS011;1493;51.496;7.210;2023-12-20T10:31:25;7.53;;;3.50;;
2966;SDS011;1493;51.496;7.210;2023-12-20T10:33:53;10.17;;;3.60;;
2966;SDS011;1493;51.496;7.210;2023-12-20T10:36:19;14.50;;;5.17;;
2966;SDS011;1493;51.496;7.210;2023-12-20T10:38:46;12.73;;;4.33;;
2966;SDS011;1493;51.496;7.210;2023-12-20T10:41:17;7.97;;;3.63;;
2966;SDS011;1493;51.496;7.210;2023-12-20T10:43:49;11.90;;;3.83;;
2966;SDS011;1493;51.496;7.210;2023-12-20T10:46:17;16.83;;;3.47;;
2966;SDS011;1493;51.496;7.210;2023-12-20T10:48:44;11.53;;;3.67;;
2966;SDS011;1493;51.496;7.210;2023-12-20T10:51:13;6.67;;;3.27;;
2966;SDS011;1493;51.496;7.210;2023-12-20T10:53:43;8.47;;;3.50;;
2966;SDS011;1493;51.496;7.210;2023-12-20T10:56:15;13.60;;;3.93;;
2966;SDS011;1493;51.496;7.210;2023-12-20T10:58:43;11.90;;;3.90;;
2966;SDS011;1493;51.496;7.210;2023-12-20T11:01:12;10.00;;;3.80;;
2966;SDS011;1493;51.496;7.210;2023-12-20T11:03:41;11.20;;;4.60;;
2966;SDS011;1493;51.496;7.210;2023-12-20T11:06:13;15.23;;;5.10;;
2966;SDS011;1493;51.496;7.210;2023-12-20T11:08:51;10.23;;;4.00;;
2966;SDS011;1493;51.496;7.210;2023-12-20T11:11:35;10.17;;;3.90;;
2966;SDS011;1493;51.496;7.210;2023-12-20T11:14:11;8.27;;;4.30;;
2966;SDS011;1493;51.496;7.210;2023-12-20T11:16:42;10.20;;;4.30;;
2966;SDS011;1493;51.496;7.210;2023-12-20T11:19:09;15.20;;;3.73;;
2966;SDS011;1493;51.496;7.210;2023-12-20T11:21:39;9.90;;;3.80;;
2966;SDS011;1493;51.496;7.210;2023-12-20T11:24:06;13.53;;;4.33;;
2966;SDS011;1493;51.496;7.210;2023-12-20T11:26:33;6.97;;;4.47;;
2966;SDS011;1493;51.496;7.210;2023-12-20T11:31:55;10.63;;;4.93;;
2966;SDS011;1493;51.496;7.210;2023-12-20T11:34:22;15.63;;;4.97;;
2966;SDS011;1493;51.496;7.210;2023-12-20T11:36:56;8.83;;;4.87;;
2966;SDS011;1493;51.496;7.210;2023-12-20T11:39:24;13.70;;;4.63;;
2966;SDS011;1493;51.496;7.210;2023-12-20T11:41:57;18.17;;;5.60;;
2966;SDS011;1493;51.496;7.210;2023-12-20T11:44:30;12.33;;;5.70;;
2966;SDS011;1493;51.496;7.210;2023-12-20T11:46:57;8.43;;;4.90;;
2966;SDS011;1493;51.496;7.210;2023-12-20T11:49:24;9.30;;;5.00;;
2966;SDS011;1493;51.496;7.210;2023-12-20T11:51:54;11.43;;;4.73;;
2966;SDS011;1493;51.496;7.210;2023-12-20T11:54:21;15.27;;;4.70;;
2966;SDS011;1493;51.496;7.210;2023-12-20T11:56:47;15.47;;;5.47;;
2966;SDS011;1493;51.496;7.210;2023-12-20T11:59:16;10.83;;;4.77;;
2966;SDS011;1493;51.496;7.210;2023-12-20T12:01:47;17.00;;;4.80;;
2966;SDS011;1493;51.496;7.210;2023-12-20T12:04:14;11.03;;;4.97;;
2966;SDS011;1493;51.496;7.210;2023-12-20T12:06:42;11.60;;;5.53;;
2966;SDS011;1493;51.496;7.210;2023-12-20T12:09:09;14.43;;;6.10;;
2966;SDS011;1493;51.496;7.210;2023-12-20T12:11:36;8.50;;;4.63;;
2966;SDS011;1493;51.496;7.210;2023-12-20T12:14:03;13.93;;;6.17;;
2966;SDS011;1493;51.496;7.210;2023-12-20T12:16:31;14.50;;;5.77;;
2966;SDS011;1493;51.496;7.210;2023-12-20T12:18:58;10.07;;;5.90;;
2966;SDS011;1493;51.496;7.210;2023-12-20T12:21:25;11.00;;;6.20;;
2966;SDS011;1493;51.496;7.210;2023-12-20T12:23:52;13.10;;;8.23;;
2966;SDS011;1493;51.496;7.210;2023-12-20T12:26:19;14.33;;;6.70;;
2966;SDS011;1493;51.496;7.210;2023-12-20T12:28:46;14.93;;;7.27;;
2966;SDS011;1493;51.496;7.210;2023-12-20T12:31:13;14.50;;;6.63;;
2966;SDS011;1493;51.496;7.210;2023-12-20T12:33:43;14.00;;;6.40;;
2966;SDS011;1493;51.496;7.210;2023-12-20T12:36:10;21.07;;;6.30;;
2966;SDS011;1493;51.496;7.210;2023-12-20T12:38:41;15.60;;;5.90;;
2966;SDS011;1493;51.496;7.210;2023-12-20T12:41:08;17.03;;;8.20;;
2966;SDS011;1493;51.496;7.210;2023-12-20T12:43:35;15.63;;;8.00;;
2966;SDS011;1493;51.496;7.210;2023-12-20T12:46:02;14.37;;;7.20;;
2966;SDS011;1493;51.496;7.210;2023-12-20T12:48:29;18.20;;;6.60;;
2966;SDS011;1493;51.496;7.210;2023-12-20T12:50:57;17.13;;;6.33;;
2966;SDS011;1493;51.496;7.210;2023-12-20T12:53:25;14.07;;;5.70;;
2966;SDS011;1493;51.496;7.210;2023-12-20T12:55:52;16.13;;;6.17;;
2966;SDS011;1493;51.496;7.210;2023-12-20T12:58:20;24.57;;;7.07;;
2966;SDS011;1493;51.496;7.210;2023-12-20T13:00:47;13.93;;;6.17;;
2966;SDS011;1493;51.496;7.210;2023-12-20T13:03:14;14.60;;;6.30;;
2966;SDS011;1493;51.496;7.210;2023-12-20T13:05:41;14.90;;;5.80;;
2966;SDS011;1493;51.496;7.210;2023-12-20T13:08:10;14.40;;;5.90;;
2966;SDS011;1493;51.496;7.210;2023-12-20T13:10:38;13.37;;;4.70;;
2966;SDS011;1493;51.496;7.210;2023-12-20T13:13:05;10.93;;;4.23;;
2966;SDS011;1493;51.496;7.210;2023-12-20T13:15:32;14.97;;;4.83;;
2966;SDS011;1493;51.496;7.210;2023-12-20T13:17:59;7.50;;;5.57;;
2966;SDS011;1493;51.496;7.210;2023-12-20T13:20:26;15.30;;;5.57;;
2966;SDS011;1493;51.496;7.210;2023-12-20T13:22:53;10.57;;;5.80;;
2966;SDS011;1493;51.496;7.210;2023-12-20T13:25:21;18.13;;;6.73;;
2966;SDS011;1493;51.496;7.210;2023-12-20T13:27:48;25.93;;;6.93;;
2966;SDS011;1493;51.496;7.210;2023-12-20T13:30:15;12.20;;;6.30;;
2966;SDS011;1493;51.496;7.210;2023-12-20T13:32:43;10.73;;;5.17;;
2966;SDS011;1493;51.496;7.210;2023-12-20T13:35:10;8.13;;;6.23;;
2966;SDS011;1493;51.496;7.210;2023-12-20T13:37:38;13.60;;;6.83;;
2966;SDS011;1493;51.496;7.210;2023-12-20T13:40:06;21.60;;;7.67;;
2966;SDS011;1493;51.496;7.210;2023-12-20T13:42:35;13.93;;;5.33;;
2966;SDS011;1493;51.496;7.210;2023-12-20T13:45:02;11.40;;;5.83;;
2966;SDS011;1493;51.496;7.210;2023-12-20T13:47:29;23.17;;;8.07;;
2966;SDS011;1493;51.496;7.210;2023-12-20T13:49:56;11.23;;;6.43;;
2966;SDS011;1493;51.496;7.210;2023-12-20T13:52:23;14.40;;;6.13;;
2966;SDS011;1493;51.496;7.210;2023-12-20T13:54:50;16.17;;;7.10;;
2966;SDS011;1493;51.496;7.210;2023-12-20T13:57:16;11.63;;;7.23;;
2966;SDS011;1493;51.496;7.210;2023-12-20T13:59:45;9.20;;;7.10;;
2966;SDS011;1493;51.496;7.210;2023-12-20T14:02:18;10.60;;;7.10;;
2966;SDS011;1493;51.496;7.210;2023-12-20T14:04:44;11.17;;;8.20;;
2966;SDS011;1493;51.496;7.210;2023-12-20T14:07:11;16.20;;;12.40;;
2966;SDS011;1493;51.496;7.210;2023-12-20T14:09:38;11.73;;;8.10;;
2966;SDS011;1493;51.496;7.210;2023-12-20T14:12:10;11.90;;;9.77;;
2966;SDS011;1493;51.496;7.210;2023-12-20T14:14:37;17.20;;;9.33;;
2966;SDS011;1493;51.496;7.210;2023-12-20T14:17:05;15.70;;;9.40;;
2966;SDS011;1493;51.496;7.210;2023-12-20T14:19:32;14.97;;;9.23;;
2966;SDS011;1493;51.496;7.210;2023-12-20T14:21:59;21.37;;;9.63;;
2966;SDS011;1493;51.496;7.210;2023-12-20T14:24:27;15.43;;;9.77;;
2966;SDS011;1493;51.496;7.210;2023-12-20T14:26:54;11.10;;;8.50;;
2966;SDS011;1493;51.496;7.210;2023-12-20T14:29:20;16.53;;;8.37;;
2966;SDS011;1493;51.496;7.210;2023-12-20T14:31:47;14.03;;;7.90;;
2966;SDS011;1493;51.496;7.210;2023-12-20T14:34:16;11.83;;;8.60;;
2966;SDS011;1493;51.496;7.210;2023-12-20T14:36:42;10.77;;;7.43;;
2966;SDS011;1493;51.496;7.210;2023-12-20T14:39:09;16.07;;;7.30;;
2966;SDS011;1493;51.496;7.210;2023-12-20T14:41:38;12.07;;;7.57;;
2966;SDS011;1493;51.496;7.210;2023-12-20T14:44:05;13.33;;;7.97;;
2966;SDS011;1493;51.496;7.210;2023-12-20T14:46:32;14.03;;;7.40;;
2966;SDS011;1493;51.496;7.210;2023-12-20T14:48:58;15.23;;;8.67;;
2966;SDS011;1493;51.496;7.210;2023-12-20T14:51:28;13.87;;;7.97;;
2966;SDS011;1493;51.496;7.210;2023-12-20T14:53:55;10.77;;;8.67;;
2966;SDS011;1493;51.496;7.210;2023-12-20T14:56:22;13.43;;;9.70;;
2966;SDS011;1493;51.496;7.210;2023-12-20T14:58:51;17.23;;;8.77;;
2966;SDS011;1493;51.496;7.210;2023-12-20T15:01:17;13.10;;;8.77;;
2966;SDS011;1493;51.496;7.210;2023-12-20T15:03:46;14.33;;;10.40;;
2966;SDS011;1493;51.496;7.210;2023-12-20T15:06:13;14.70;;;10.00;;
2966;SDS011;1493;51.496;7.210;2023-12-20T15:08:41;14.70;;;11.10;;
2966;SDS011;1493;51.496;7.210;2023-12-20T15:11:08;16.10;;;10.87;;
2966;SDS011;1493;51.496;7.210;2023-12-20T15:13:35;14.13;;;9.30;;
2966;SDS011;1493;51.496;7.210;2023-12-20T15:16:01;16.70;;;10.67;;
2966;SDS011;1493;51.496;7.210;2023-12-20T15:18:28;16.17;;;9.70;;
2966;SDS011;1493;51.496;7.210;2023-12-20T15:20:57;13.97;;;8.00;;
2966;SDS011;1493;51.496;7.210;2023-12-20T15:23:24;16.40;;;9.13;;
2966;SDS011;1493;51.496;7.210;2023-12-20T15:25:55;18.63;;;9.27;;
2966;SDS011;1493;51.496;7.210;2023-12-20T15:28:21;14.60;;;9.90;;
2966;SDS011;1493;51.496;7.210;2023-12-20T15:30:48;15.00;;;8.93;;
2966;SDS011;1493;51.496;7.210;2023-12-20T15:33:15;16.90;;;8.07;;
2966;SDS011;1493;51.496;7.210;2023-12-20T15:35:42;14.00;;;7.73;;
2966;SDS011;1493;51.496;7.210;2023-12-20T15:38:09;13.60;;;8.40;;